Time;durP1;ratioP1;P1;durP2;ratioP2;P2;SDS_P1;SDS_P2;PMS_P1;PMS_P2;Temp;Humidity;BMP_temperature;BMP_pressure;BME280_temperature;BME280_humidity;BME280_pressure;Samples;Min_cycle;Max_cycle;Signal;HPM_P1;HPM_P2
2021/12/24 05:01:29;;;;;;;4.10;3.85;;;5.20;99.90;;;;;;5636873;23;20279;-70
2021/12/24 05:03:57;;;;;;;3.65;3.45;;;5.20;99.90;;;;;;4961768;28;20232;-71
2021/12/24 05:06:33;;;;;;;5.15;4.75;;;5.20;99.90;;;;;;4959443;28;20344;-70
2021/12/24 05:09:06;;;;;;;4.88;4.57;;;5.20;99.90;;;;;;4974377;28;20304;-70
2021/12/24 05:11:33;;;;;;;4.10;3.90;;;5.20;99.90;;;;;;4935427;29;20233;-70
2021/12/24 05:14:00;;;;;;;4.47;4.25;;;5.20;99.90;;;;;;4934805;29;20709;-69
2021/12/24 05:16:40;;;;;;;4.85;4.57;;;5.20;99.90;;;;;;4935768;28;20217;-68
2021/12/24 05:21:52;;;;;;;4.05;3.83;;;5.30;99.90;;;;;;4935280;29;20233;-69
2021/12/24 05:24:20;;;;;;;5.38;4.25;;;5.20;99.90;;;;;;4935577;28;20675;-69
2021/12/24 05:26:49;;;;;;;4.13;3.85;;;5.30;99.90;;;;;;4935537;29;20214;-70
2021/12/24 05:29:17;;;;;;;3.33;3.13;;;5.30;99.90;;;;;;4938758;28;20697;-70
2021/12/24 05:31:46;;;;;;;4.50;4.20;;;5.30;99.90;;;;;;4953347;28;20714;-70
2021/12/24 05:34:17;;;;;;;3.15;3.05;;;5.30;99.90;;;;;;4955585;28;20374;-69
2021/12/24 05:36:44;;;;;;;3.40;3.20;;;5.30;99.90;;;;;;4954425;28;20213;-70
2021/12/24 05:39:11;;;;;;;4.03;3.83;;;5.20;99.90;;;;;;4954542;28;20623;-71
2021/12/24 05:41:39;;;;;;;3.78;3.58;;;5.30;99.90;;;;;;4955702;28;20312;-70
2021/12/24 05:44:08;;;;;;;4.47;4.18;;;5.30;99.90;;;;;;4953866;28;20220;-68
2021/12/24 05:46:35;;;;;;;3.78;3.58;;;5.30;99.90;;;;;;4952606;29;20201;-68
2021/12/24 05:49:04;;;;;;;4.20;4.00;;;5.30;99.90;;;;;;4938966;28;20206;-69
2021/12/24 05:51:31;;;;;;;4.30;4.00;;;5.30;99.90;;;;;;4950951;28;20288;-69
2021/12/24 05:53:57;;;;;;;3.72;3.58;;;5.20;99.90;;;;;;4953564;28;20229;-71
2021/12/24 05:56:24;;;;;;;4.55;4.28;;;5.20;99.90;;;;;;4971009;28;20204;-70
2021/12/24 05:58:51;;;;;;;3.38;3.28;;;5.20;99.90;;;;;;4958947;28;20698;-70
2021/12/24 06:01:17;;;;;;;3.65;3.45;;;5.20;99.90;;;;;;4968728;28;20243;-70
2021/12/24 06:03:44;;;;;;;4.63;4.30;;;5.20;99.90;;;;;;4960487;28;20319;-67
2021/12/24 06:06:12;;;;;;;4.35;4.05;;;5.20;99.90;;;;;;4952819;28;20216;-69
2021/12/24 06:08:39;;;;;;;3.50;3.30;;;5.30;99.90;;;;;;4953719;28;20213;-68
2021/12/24 06:11:06;;;;;;;4.35;4.05;;;5.30;99.90;;;;;;4965874;28;20267;-70
2021/12/24 06:13:33;;;;;;;4.78;4.45;;;5.30;99.90;;;;;;4963381;28;20214;-69
2021/12/24 06:16:01;;;;;;;4.57;4.32;;;5.30;99.90;;;;;;4966037;28;20205;-69
2021/12/24 06:18:29;;;;;;;4.25;3.85;;;5.30;99.90;;;;;;4965257;28;20209;-69
2021/12/24 06:20:58;;;;;;;4.10;3.80;;;5.30;99.90;;;;;;4954484;28;20236;-70
2021/12/24 06:23:27;;;;;;;4.22;4.03;;;5.30;99.90;;;;;;4953139;28;20284;-68
2021/12/24 06:25:56;;;;;;;4.00;3.80;;;5.40;99.90;;;;;;4954296;28;20209;-71
2021/12/24 06:28:23;;;;;;;3.47;3.28;;;5.40;99.90;;;;;;4947370;28;20204;-69
2021/12/24 06:30:51;;;;;;;3.30;3.20;;;5.30;99.90;;;;;;4951222;28;20255;-70
2021/12/24 06:33:18;;;;;;;3.80;3.70;;;5.40;99.90;;;;;;4958193;28;20209;-71
2021/12/24 06:35:46;;;;;;;2.70;2.60;;;5.40;99.90;;;;;;4948153;28;20320;-70
2021/12/24 06:38:13;;;;;;;3.15;3.00;;;5.40;99.90;;;;;;4966008;28;20593;-69
2021/12/24 06:40:41;;;;;;;3.95;3.75;;;5.40;99.90;;;;;;4952577;28;20232;-70
2021/12/24 06:43:08;;;;;;;4.40;4.10;;;5.40;99.90;;;;;;4952591;28;20217;-69
2021/12/24 06:45:35;;;;;;;3.38;3.28;;;5.40;99.90;;;;;;4953948;28;20205;-69
2021/12/24 06:48:03;;;;;;;62.47;27.20;;;5.40;99.90;;;;;;4952519;28;20283;-70
2021/12/24 06:50:30;;;;;;;7.63;6.10;;;5.40;99.90;;;;;;4956355;28;20235;-69
2021/12/24 06:52:56;;;;;;;5.10;4.70;;;5.40;99.90;;;;;;4969567;28;20703;-70
2021/12/24 06:55:24;;;;;;;5.55;5.15;;;5.30;99.90;;;;;;4955113;28;20271;-68
2021/12/24 06:57:52;;;;;;;5.38;4.85;;;5.30;99.90;;;;;;4970464;28;20209;-69
2021/12/24 07:00:21;;;;;;;4.97;4.68;;;5.30;99.90;;;;;;4951509;28;20206;-70
2021/12/24 07:02:48;;;;;;;5.15;4.80;;;5.30;99.90;;;;;;4962316;28;20209;-68
2021/12/24 07:05:17;;;;;;;7.05;6.35;;;5.30;99.90;;;;;;4970934;28;20247;-70
2021/12/24 07:07:44;;;;;;;4.50;4.10;;;5.30;99.90;;;;;;4970781;28;20212;-70
2021/12/24 07:10:11;;;;;;;6.30;5.70;;;5.20;99.90;;;;;;4943996;28;20217;-69
2021/12/24 07:12:38;;;;;;;5.78;5.25;;;5.30;99.90;;;;;;4947256;28;20228;-70
2021/12/24 07:15:07;;;;;;;7.30;6.60;;;5.30;99.90;;;;;;4952082;28;20312;-70
2021/12/24 07:17:34;;;;;;;7.22;6.57;;;5.30;99.90;;;;;;4952260;28;20607;-69
2021/12/24 07:20:01;;;;;;;6.97;6.00;;;5.30;99.90;;;;;;4952638;28;20209;-70
2021/12/24 07:22:27;;;;;;;6.97;6.30;;;5.30;99.90;;;;;;4954641;28;20225;-69
2021/12/24 07:24:54;;;;;;;6.93;6.25;;;5.20;99.90;;;;;;4954765;28;20584;-70
2021/12/24 07:27:21;;;;;;;7.05;6.35;;;5.20;99.90;;;;;;4953543;28;20212;-71
2021/12/24 07:29:48;;;;;;;8.70;6.47;;;5.20;99.90;;;;;;4950814;28;20210;-69
2021/12/24 07:32:16;;;;;;;7.07;5.70;;;5.20;99.90;;;;;;4951702;28;20232;-71
2021/12/24 07:34:42;;;;;;;6.45;5.72;;;5.20;99.90;;;;;;4954252;28;20232;-70
2021/12/24 07:37:09;;;;;;;9.18;7.05;;;5.10;99.90;;;;;;4954313;28;20649;-71
2021/12/24 07:39:36;;;;;;;7.45;6.70;;;5.10;99.90;;;;;;4952100;28;20217;-71
2021/12/24 07:42:03;;;;;;;6.40;5.80;;;5.10;99.90;;;;;;4952632;28;20240;-71
2021/12/24 07:44:33;;;;;;;7.45;6.65;;;5.10;99.90;;;;;;4939956;28;20204;-68
2021/12/24 07:47:02;;;;;;;7.43;6.60;;;5.10;99.90;;;;;;4934493;29;20768;-68
2021/12/24 07:49:37;;;;;;;8.40;6.90;;;5.10;99.90;;;;;;4959620;28;20205;-70
2021/12/24 07:52:08;;;;;;;6.65;6.05;;;5.10;99.90;;;;;;4957748;28;20244;-70
2021/12/24 07:54:36;;;;;;;6.15;5.63;;;5.00;99.90;;;;;;4956147;28;20229;-69
2021/12/24 07:57:04;;;;;;;8.50;6.38;;;5.10;99.90;;;;;;4941154;28;20232;-69
2021/12/24 07:59:31;;;;;;;7.65;6.72;;;5.00;99.90;;;;;;4965124;28;20205;-70
2021/12/24 08:01:58;;;;;;;7.50;6.53;;;5.00;99.90;;;;;;4955089;28;20240;-70
2021/12/24 08:04:25;;;;;;;8.10;7.38;;;5.00;99.90;;;;;;4954244;28;20273;-71
2021/12/24 08:06:53;;;;;;;7.05;6.32;;;5.00;99.90;;;;;;4936834;29;20268;-71
2021/12/24 08:09:20;;;;;;;11.48;7.40;;;5.00;99.90;;;;;;4974906;28;20584;-71
2021/12/24 08:11:46;;;;;;;11.40;8.45;;;5.00;99.90;;;;;;4975373;28;20228;-71
2021/12/24 08:14:13;;;;;;;8.20;7.40;;;4.90;99.90;;;;;;4957490;28;20209;-69
2021/12/24 08:16:40;;;;;;;9.15;7.28;;;4.90;99.90;;;;;;4960375;28;20213;-71
2021/12/24 08:19:06;;;;;;;12.20;8.40;;;4.90;99.90;;;;;;4955609;28;20216;-69
2021/12/24 08:21:33;;;;;;;10.40;7.30;;;4.90;99.90;;;;;;4955207;28;20229;-69
2021/12/24 08:24:01;;;;;;;9.85;8.13;;;4.90;99.90;;;;;;4950557;28;20217;-71
2021/12/24 08:26:29;;;;;;;9.00;8.10;;;4.90;99.90;;;;;;4954519;28;20212;-70
2021/12/24 08:28:56;;;;;;;12.00;9.18;;;4.90;99.90;;;;;;4955169;28;20236;-70
2021/12/24 08:31:23;;;;;;;12.63;8.30;;;4.90;99.90;;;;;;4955673;28;20311;-70
2021/12/24 08:33:49;;;;;;;13.55;8.35;;;4.90;99.90;;;;;;4953577;28;20209;-69
2021/12/24 08:36:16;;;;;;;10.30;8.20;;;4.90;99.90;;;;;;4954878;28;20236;-71
2021/12/24 08:38:43;;;;;;;10.60;8.18;;;4.80;99.90;;;;;;4958547;28;20201;-70
2021/12/24 08:41:11;;;;;;;9.38;7.80;;;4.80;99.90;;;;;;4974322;28;20367;-70
2021/12/24 08:43:38;;;;;;;10.05;8.30;;;4.80;99.90;;;;;;4958499;28;20213;-71
2021/12/24 08:46:05;;;;;;;12.63;7.63;;;4.70;99.90;;;;;;4968401;28;20205;-71
2021/12/24 08:48:31;;;;;;;10.20;8.45;;;4.70;99.90;;;;;;4966914;28;20216;-70
2021/12/24 08:50:58;;;;;;;7.80;6.93;;;4.70;99.90;;;;;;4959304;28;20225;-70
2021/12/24 08:53:25;;;;;;;9.15;7.75;;;4.70;99.90;;;;;;4957994;28;20604;-70
2021/12/24 08:55:52;;;;;;;10.38;7.80;;;4.70;99.90;;;;;;4956469;28;20229;-69
2021/12/24 08:58:20;;;;;;;7.78;6.53;;;4.70;99.90;;;;;;4955008;28;20260;-70
2021/12/24 09:00:47;;;;;;;7.75;6.25;;;4.70;99.90;;;;;;4950789;28;20242;-71
2021/12/24 09:03:14;;;;;;;6.65;6.03;;;4.70;99.90;;;;;;4974382;28;20319;-70
2021/12/24 09:05:40;;;;;;;8.90;6.95;;;4.60;99.90;;;;;;4971253;28;20623;-70
2021/12/24 09:08:07;;;;;;;7.28;6.50;;;4.60;99.90;;;;;;4955847;28;20221;-70
2021/12/24 09:10:34;;;;;;;9.00;7.40;;;4.50;99.90;;;;;;4954196;28;20229;-72
2021/12/24 09:13:01;;;;;;;6.28;5.80;;;4.50;99.90;;;;;;4973550;28;20212;-69
2021/12/24 09:15:30;;;;;;;6.85;6.18;;;4.50;99.90;;;;;;4972008;28;20228;-70
2021/12/24 09:17:58;;;;;;;6.93;6.32;;;4.50;99.90;;;;;;4970577;28;20303;-70
2021/12/24 09:20:30;;;;;;;7.05;6.45;;;4.50;99.90;;;;;;4945131;28;20216;-69
2021/12/24 09:22:59;;;;;;;6.65;6.07;;;4.50;99.90;;;;;;4943545;28;20209;-69
2021/12/24 09:25:27;;;;;;;6.07;5.55;;;4.40;99.90;;;;;;4948440;29;20256;-67
2021/12/24 09:27:57;;;;;;;6.70;6.10;;;4.40;99.90;;;;;;4956832;28;20264;-71
2021/12/24 09:30:24;;;;;;;6.10;5.60;;;4.40;99.90;;;;;;4944025;28;20197;-71
2021/12/24 09:32:52;;;;;;;8.23;6.70;;;4.40;99.90;;;;;;4955250;28;20832;-70
2021/12/24 09:35:20;;;;;;;6.00;5.60;;;4.40;99.90;;;;;;4955247;28;20315;-70
2021/12/24 09:37:48;;;;;;;6.65;6.10;;;4.30;99.90;;;;;;4947174;28;20234;-70
2021/12/24 09:40:16;;;;;;;7.63;6.97;;;4.30;99.90;;;;;;4947329;28;20769;-71
2021/12/24 09:42:43;;;;;;;6.10;5.65;;;4.20;99.90;;;;;;4954109;28;20227;-70
2021/12/24 09:45:11;;;;;;;6.90;6.40;;;4.20;99.90;;;;;;4947383;28;20212;-71
2021/12/24 09:47:38;;;;;;;5.88;5.38;;;4.10;99.90;;;;;;4946988;29;20205;-71
2021/12/24 09:50:08;;;;;;;5.68;5.10;;;4.10;99.90;;;;;;4947981;28;20260;-71
2021/12/24 09:52:38;;;;;;;5.22;4.93;;;4.00;99.90;;;;;;4949855;29;20615;-70
2021/12/24 09:55:10;;;;;;;5.93;5.50;;;4.00;99.90;;;;;;4958784;28;20318;-71
2021/12/24 09:57:37;;;;;;;4.97;4.57;;;4.00;99.90;;;;;;4956615;28;20213;-70
2021/12/24 10:00:06;;;;;;;6.75;6.35;;;3.90;99.90;;;;;;4963960;28;20215;-70
2021/12/24 10:02:40;;;;;;;4.80;4.50;;;3.90;99.90;;;;;;4939217;28;20246;-70
2021/12/24 10:08:02;;;;;;;6.18;5.72;;;3.80;99.90;;;;;;5107674;27;21009;-72
2021/12/24 10:10:30;;;;;;;6.60;6.10;;;3.70;99.90;;;;;;5106764;28;20741;-68
2021/12/24 10:13:12;;;;;;;8.80;6.20;;;3.60;99.90;;;;;;5108124;28;20239;-68
2021/12/24 10:15:51;;;;;;;5.65;5.25;;;3.60;99.90;;;;;;5092070;28;20204;-68
2021/12/24 10:18:28;;;;;;;5.50;5.15;;;3.50;99.90;;;;;;5087570;28;20223;-68
2021/12/24 10:21:00;;;;;;;6.03;5.45;;;3.40;99.90;;;;;;5103055;28;20219;-70
2021/12/24 10:23:42;;;;;;;6.50;5.97;;;3.40;99.90;;;;;;5098352;28;20242;-69
2021/12/24 10:26:24;;;;;;;6.20;5.60;;;3.30;99.90;;;;;;5100499;28;20719;-69
2021/12/24 10:29:10;;;;;;;7.78;5.00;;;3.30;99.90;;;;;;5087302;28;20192;-67
2021/12/24 10:31:43;;;;;;;6.55;5.85;;;3.30;99.90;;;;;;5104261;28;20226;-70
2021/12/24 10:34:27;;;;;;;5.10;4.80;;;3.30;99.90;;;;;;5089905;28;20192;-68
2021/12/24 10:37:04;;;;;;;4.53;4.20;;;3.20;99.90;;;;;;5090914;28;20199;-68
2021/12/24 10:39:37;;;;;;;4.22;4.05;;;3.10;99.90;;;;;;5103461;28;20208;-68
2021/12/24 10:42:08;;;;;;;4.43;4.18;;;3.00;99.90;;;;;;5106520;28;20281;-69
2021/12/24 10:44:37;;;;;;;5.47;5.00;;;2.90;99.90;;;;;;5105654;28;20236;-69
2021/12/24 10:47:08;;;;;;;5.80;5.32;;;2.90;99.90;;;;;;5107395;28;20273;-70
2021/12/24 10:52:31;;;;;;;7.05;6.13;;;3.00;99.90;;;;;;5097020;28;20231;-68
2021/12/24 10:55:01;;;;;;;6.32;5.78;;;2.90;99.90;;;;;;5097455;28;20633;-68
2021/12/24 10:57:30;;;;;;;6.90;6.20;;;2.90;99.90;;;;;;5100450;28;20211;-68
2021/12/24 10:59:59;;;;;;;6.30;5.70;;;2.90;99.90;;;;;;5104678;28;20231;-69
2021/12/24 11:02:29;;;;;;;6.82;6.20;;;2.90;99.90;;;;;;5095255;28;20232;-69
2021/12/24 11:04:56;;;;;;;8.38;7.53;;;2.90;99.90;;;;;;5104608;28;20201;-69
2021/12/24 11:07:38;;;;;;;8.50;7.80;;;2.80;99.90;;;;;;5096868;28;20260;-69
2021/12/24 11:10:12;;;;;;;8.18;7.40;;;2.80;99.90;;;;;;5089207;28;20215;-69
2021/12/24 11:12:41;;;;;;;8.52;7.82;;;2.70;99.90;;;;;;5103524;28;20711;-68
2021/12/24 11:15:20;;;;;;;10.13;9.25;;;2.70;99.90;;;;;;5096009;28;20196;-69
2021/12/24 11:17:47;;;;;;;14.23;12.73;;;2.60;99.90;;;;;;5093479;28;20208;-69
2021/12/24 11:20:14;;;;;;;18.92;16.88;;;2.60;99.90;;;;;;5077424;28;20452;-70
2021/12/24 11:22:57;;;;;;;12.15;9.57;;;2.60;99.90;;;;;;5093459;28;20277;-70
2021/12/24 11:25:27;;;;;;;7.88;7.28;;;2.60;99.90;;;;;;5072493;28;20216;-70
2021/12/24 11:27:54;;;;;;;8.57;7.88;;;2.60;99.90;;;;;;5086450;28;20236;-68
2021/12/24 11:30:22;;;;;;;7.30;6.80;;;2.50;99.90;;;;;;5084364;28;20197;-68
2021/12/24 11:32:50;;;;;;;13.23;8.10;;;2.40;99.90;;;;;;5087022;28;20250;-69
2021/12/24 11:35:17;;;;;;;7.55;6.85;;;2.40;99.90;;;;;;5087866;28;20196;-69
2021/12/24 11:37:47;;;;;;;8.07;7.13;;;2.40;99.90;;;;;;5089964;28;20617;-69
2021/12/24 11:40:15;;;;;;;7.88;7.10;;;2.30;99.90;;;;;;5083667;28;20548;-70
2021/12/24 11:42:47;;;;;;;9.55;7.30;;;2.30;99.90;;;;;;5081852;28;20205;-69
2021/12/24 11:45:14;;;;;;;10.57;8.30;;;2.30;99.90;;;;;;5091900;28;20205;-70
2021/12/24 11:47:41;;;;;;;8.52;7.70;;;2.30;99.90;;;;;;5074346;28;20236;-69
2021/12/24 11:50:09;;;;;;;9.55;8.55;;;2.30;99.90;;;;;;5076335;28;20699;-70
2021/12/24 11:52:36;;;;;;;9.32;8.02;;;2.20;99.90;;;;;;5078065;28;20225;-69
2021/12/24 11:55:04;;;;;;;10.20;8.77;;;2.20;99.90;;;;;;5082723;28;20204;-70
2021/12/24 11:57:30;;;;;;;28.73;13.00;;;2.20;99.90;;;;;;5091434;28;20288;-71
2021/12/24 12:00:09;;;;;;;27.15;12.38;;;2.20;99.90;;;;;;5084574;28;20643;-70
2021/12/24 12:02:45;;;;;;;18.25;11.45;;;2.10;99.90;;;;;;5078046;28;20232;-70
2021/12/24 12:05:17;;;;;;;12.20;9.65;;;2.10;99.90;;;;;;5080565;28;20246;-69
2021/12/24 12:07:44;;;;;;;8.70;7.65;;;2.10;99.90;;;;;;5073717;28;20229;-72
2021/12/24 12:10:11;;;;;;;9.52;7.88;;;2.10;99.90;;;;;;5079179;28;20226;-70
2021/12/24 12:12:40;;;;;;;6.90;6.30;;;2.10;99.90;;;;;;5071693;28;20225;-70
2021/12/24 12:15:26;;;;;;;8.70;7.90;;;2.10;99.90;;;;;;5087896;28;20250;-69
2021/12/24 12:17:56;;;;;;;8.05;7.25;;;2.10;99.90;;;;;;5077349;28;20557;-69
2021/12/24 12:20:44;;;;;;;8.88;7.72;;;2.10;99.90;;;;;;5075725;28;20205;-69
2021/12/24 12:23:44;;;;;;;9.73;7.68;;;2.20;99.90;;;;;;5076832;28;20256;-71
2021/12/24 12:26:38;;;;;;;10.55;9.45;;;2.20;99.90;;;;;;5078507;28;20205;-68
2021/12/24 12:29:28;;;;;;;7.80;7.03;;;2.30;99.90;;;;;;5071369;28;20211;-69
2021/12/24 12:32:03;;;;;;;9.57;8.68;;;2.30;99.90;;;;;;5092497;28;20228;-68
2021/12/24 12:34:59;;;;;;;8.88;8.00;;;2.30;99.90;;;;;;5099420;28;20196;-69
2021/12/24 12:37:28;;;;;;;7.53;6.93;;;2.40;99.90;;;;;;5072734;28;20196;-69
2021/12/24 12:39:58;;;;;;;8.32;7.50;;;2.40;99.90;;;;;;5078141;28;20227;-72
2021/12/24 12:43:02;;;;;;;12.55;9.02;;;2.40;99.90;;;;;;5087595;28;20246;-69
2021/12/24 12:45:55;;;;;;;7.38;6.78;;;2.40;99.90;;;;;;5080340;28;20727;-70
2021/12/24 12:48:25;;;;;;;31.40;17.33;;;2.50;99.90;;;;;;5077994;28;20270;-70
2021/12/24 12:50:55;;;;;;;6.78;6.20;;;2.50;99.90;;;;;;5079990;28;20229;-69
2021/12/24 12:53:30;;;;;;;6.70;6.10;;;2.50;99.90;;;;;;5082748;28;20215;-72
2021/12/24 12:56:12;;;;;;;4.95;4.55;;;2.50;99.90;;;;;;5076471;28;20240;-70
2021/12/24 12:58:39;;;;;;;6.07;5.30;;;2.50;99.90;;;;;;5083371;28;20261;-71
2021/12/24 13:01:10;;;;;;;7.97;7.22;;;2.50;99.90;;;;;;5087240;28;20220;-71
2021/12/24 13:04:10;;;;;;;6.75;6.22;;;2.40;99.90;;;;;;5096998;28;20226;-70
2021/12/24 13:06:51;;;;;;;7.35;6.65;;;2.40;99.90;;;;;;5087762;28;20307;-71
2021/12/24 13:09:21;;;;;;;7.63;6.85;;;2.40;99.90;;;;;;5069803;28;20201;-71
2021/12/24 13:11:49;;;;;;;8.15;6.88;;;2.40;99.90;;;;;;5069595;28;20307;-71
2021/12/24 13:14:18;;;;;;;7.15;6.45;;;2.40;99.90;;;;;;5084292;28;20219;-69
2021/12/24 13:16:51;;;;;;;8.30;7.55;;;2.40;99.90;;;;;;5090426;28;20230;-70
2021/12/24 13:19:31;;;;;;;7.72;6.05;;;2.40;99.90;;;;;;5079595;28;20197;-68
2021/12/24 13:24:49;;;;;;;6.20;5.60;;;2.30;99.90;;;;;;5078245;28;20699;-69
2021/12/24 13:27:16;;;;;;;7.53;6.25;;;2.30;99.90;;;;;;5079407;28;20217;-69
2021/12/24 13:29:43;;;;;;;8.45;6.78;;;2.30;99.90;;;;;;5071383;28;20541;-69
2021/12/24 13:32:12;;;;;;;8.43;7.50;;;2.30;99.90;;;;;;5077060;28;20696;-70
2021/12/24 13:34:39;;;;;;;7.55;6.50;;;2.20;99.90;;;;;;5090537;28;20201;-70
2021/12/24 13:37:12;;;;;;;8.45;7.63;;;2.20;99.90;;;;;;5077262;28;20205;-69
2021/12/24 13:39:47;;;;;;;9.88;8.57;;;2.20;99.90;;;;;;5074373;28;20196;-69
2021/12/24 13:42:14;;;;;;;10.13;8.95;;;2.20;99.90;;;;;;5090584;28;20696;-68
2021/12/24 13:44:41;;;;;;;10.00;9.00;;;2.20;99.90;;;;;;5090125;28;20223;-69
2021/12/24 13:47:17;;;;;;;12.43;10.18;;;2.20;99.90;;;;;;5075570;28;20225;-65
2021/12/24 13:55:22;;;;;;;8.93;8.07;;;2.20;99.90;;;;;;5069478;28;20300;-69
2021/12/24 13:57:57;;;;;;;11.75;9.70;;;2.20;99.90;;;;;;5070463;28;20208;-69
2021/12/24 14:00:24;;;;;;;12.40;9.45;;;2.20;99.90;;;;;;5069125;28;20280;-70
2021/12/24 14:02:54;;;;;;;13.40;10.23;;;2.20;99.90;;;;;;5069722;28;20235;-69
2021/12/24 14:05:21;;;;;;;14.15;10.45;;;2.20;99.90;;;;;;5069745;28;20197;-71
2021/12/24 14:08:04;;;;;;;13.75;11.15;;;2.20;99.90;;;;;;5070155;28;20229;-70
2021/12/24 14:10:31;;;;;;;15.27;10.85;;;2.20;99.90;;;;;;5069269;28;20212;-68
2021/12/24 14:13:05;;;;;;;16.00;11.68;;;2.20;99.90;;;;;;5070356;28;20205;-70
2021/12/24 14:15:42;;;;;;;14.77;10.77;;;2.10;99.90;;;;;;5069663;28;20646;-70
2021/12/24 14:18:31;;;;;;;16.88;11.25;;;2.10;99.90;;;;;;5069441;28;20207;-68
2021/12/24 14:23:42;;;;;;;18.50;12.65;;;2.00;99.90;;;;;;5089535;28;20239;-70
2021/12/24 14:26:11;;;;;;;19.40;12.95;;;2.10;99.90;;;;;;5089788;28;20204;-69
2021/12/24 14:28:38;;;;;;;24.20;14.35;;;2.10;99.90;;;;;;5088751;28;20230;-70
2021/12/24 14:31:06;;;;;;;26.17;14.90;;;2.10;99.90;;;;;;5084449;28;20224;-68
2021/12/24 14:33:36;;;;;;;24.52;15.30;;;2.10;99.90;;;;;;5089240;28;20688;-69
2021/12/24 14:36:04;;;;;;;28.83;17.08;;;2.10;99.90;;;;;;5090097;28;20200;-69
2021/12/24 14:38:32;;;;;;;27.85;15.38;;;2.00;99.90;;;;;;5090038;28;20208;-69
2021/12/24 14:41:00;;;;;;;20.67;14.40;;;2.10;99.90;;;;;;5078669;28;20221;-69
2021/12/24 14:43:34;;;;;;;30.35;19.25;;;2.10;99.90;;;;;;5070132;28;20216;-69
2021/12/24 14:46:08;;;;;;;34.08;20.05;;;2.10;99.90;;;;;;5070004;28;20224;-70
2021/12/24 14:48:36;;;;;;;24.85;15.43;;;2.10;99.90;;;;;;5069772;28;20311;-69
2021/12/24 14:51:05;;;;;;;25.83;16.52;;;2.10;99.90;;;;;;5070705;28;20624;-70
2021/12/24 14:53:33;;;;;;;24.33;15.30;;;2.10;99.90;;;;;;5071426;28;20197;-70
2021/12/24 14:56:04;;;;;;;31.23;23.05;;;2.10;99.90;;;;;;5092024;28;20573;-69
2021/12/24 14:58:33;;;;;;;33.67;19.75;;;2.10;99.90;;;;;;5093806;28;20295;-69
2021/12/24 15:01:01;;;;;;;25.60;17.70;;;2.10;99.90;;;;;;5088378;28;20228;-69
2021/12/24 15:03:32;;;;;;;23.75;15.77;;;2.10;99.90;;;;;;5093216;28;20584;-69
2021/12/24 15:06:02;;;;;;;22.77;14.90;;;2.10;99.90;;;;;;5093715;28;20231;-69
2021/12/24 15:08:33;;;;;;;29.70;16.45;;;2.10;99.90;;;;;;5085870;28;20313;-69
2021/12/24 15:11:09;;;;;;;30.20;16.60;;;2.10;99.90;;;;;;5091405;28;20224;-70
2021/12/24 15:13:40;;;;;;;30.17;15.88;;;2.10;99.90;;;;;;5076422;28;20197;-69
2021/12/24 15:16:07;;;;;;;24.67;14.30;;;2.10;99.90;;;;;;5093171;28;20617;-69
2021/12/24 15:18:34;;;;;;;28.40;18.60;;;2.10;99.90;;;;;;5093155;28;20196;-69
2021/12/24 15:21:02;;;;;;;21.90;15.38;;;2.10;99.90;;;;;;5085730;28;20308;-70
2021/12/24 15:23:29;;;;;;;31.70;16.30;;;2.10;99.90;;;;;;5073322;28;20201;-69
2021/12/24 15:25:58;;;;;;;35.28;20.05;;;2.10;99.90;;;;;;5073076;28;20581;-69
2021/12/24 15:28:24;;;;;;;34.47;22.95;;;2.10;99.90;;;;;;5083165;28;20320;-68
2021/12/24 15:30:53;;;;;;;32.00;18.95;;;2.10;99.90;;;;;;5088686;28;20250;-68
2021/12/24 15:33:21;;;;;;;21.80;14.68;;;2.10;99.90;;;;;;5090188;28;20212;-68
2021/12/24 15:35:48;;;;;;;33.53;16.10;;;2.10;99.90;;;;;;5093532;28;20216;-68
2021/12/24 15:38:17;;;;;;;29.95;16.65;;;2.10;99.90;;;;;;5092355;28;20222;-68
2021/12/24 15:40:44;;;;;;;31.88;16.92;;;2.10;99.90;;;;;;5088480;28;20217;-70
2021/12/24 15:43:11;;;;;;;28.65;16.13;;;2.10;99.90;;;;;;5084970;28;20201;-68
2021/12/24 15:45:39;;;;;;;38.50;16.20;;;2.10;99.90;;;;;;5080970;28;20203;-68
2021/12/24 15:48:07;;;;;;;40.55;19.63;;;2.10;99.90;;;;;;5074076;28;20221;-68
2021/12/24 15:50:34;;;;;;;32.28;15.73;;;2.20;99.90;;;;;;5075322;28;20196;-67
2021/12/24 15:53:00;;;;;;;22.92;14.05;;;2.10;99.90;;;;;;5084232;28;20201;-69
2021/12/24 15:55:31;;;;;;;28.33;13.27;;;2.10;99.90;;;;;;5080816;28;20193;-68
2021/12/24 15:57:58;;;;;;;30.45;16.90;;;2.00;99.90;;;;;;5082346;28;20193;-68
2021/12/24 16:00:24;;;;;;;16.33;11.88;;;2.00;99.90;;;;;;5084670;28;20300;-68
2021/12/24 16:02:51;;;;;;;10.50;7.30;;;2.00;99.90;;;;;;5076320;28;20201;-71
2021/12/24 16:05:19;;;;;;;11.13;8.30;;;1.90;99.90;;;;;;5083321;28;20201;-68
2021/12/24 16:07:45;;;;;;;10.88;6.55;;;1.90;99.90;;;;;;5076366;28;20651;-68
2021/12/24 16:10:13;;;;;;;11.88;6.78;;;1.90;99.90;;;;;;5077491;28;20239;-69
2021/12/24 16:12:41;;;;;;;9.68;5.35;;;1.80;99.90;;;;;;5085378;28;20252;-67
2021/12/24 16:15:08;;;;;;;6.03;5.45;;;1.80;99.90;;;;;;5089109;28;20204;-68
2021/12/24 16:17:35;;;;;;;6.60;3.40;;;1.80;99.90;;;;;;5083851;28;20205;-68
2021/12/24 16:20:02;;;;;;;4.10;3.80;;;1.70;99.90;;;;;;5084847;28;20200;-67
2021/12/24 16:22:29;;;;;;;5.72;4.13;;;1.70;99.90;;;;;;5084681;28;20246;-68
2021/12/24 16:24:56;;;;;;;5.78;4.60;;;1.70;99.90;;;;;;5076753;28;20643;-69
2021/12/24 16:27:22;;;;;;;5.05;3.03;;;1.70;99.90;;;;;;5084176;28;20212;-69
2021/12/24 16:29:55;;;;;;;5.47;3.53;;;1.70;99.90;;;;;;5081247;28;20262;-68
2021/12/24 16:32:25;;;;;;;2.70;2.50;;;1.70;99.90;;;;;;5084385;28;20224;-70
2021/12/24 16:34:52;;;;;;;3.28;3.03;;;1.60;99.90;;;;;;5085127;28;20201;-69
2021/12/24 16:37:19;;;;;;;3.08;2.83;;;1.60;99.90;;;;;;5088387;28;20207;-69
2021/12/24 16:39:46;;;;;;;5.43;3.20;;;1.60;99.90;;;;;;5087607;28;20304;-69
2021/12/24 16:42:14;;;;;;;3.42;2.10;;;1.60;99.90;;;;;;5088120;28;20220;-68
2021/12/24 16:44:42;;;;;;;1.75;1.75;;;1.50;99.90;;;;;;5082613;28;20216;-69
2021/12/24 16:47:11;;;;;;;0.63;0.63;;;1.40;99.90;;;;;;5086043;28;20595;-67
2021/12/24 16:49:39;;;;;;;1.15;1.15;;;1.30;99.90;;;;;;5090923;28;20224;-69
2021/12/24 16:52:08;;;;;;;0.90;0.90;;;1.20;99.90;;;;;;5089659;28;20251;-68
2021/12/24 16:54:35;;;;;;;1.77;1.10;;;1.20;99.90;;;;;;5080071;28;20226;-70
2021/12/24 16:57:02;;;;;;;0.80;0.80;;;1.10;99.90;;;;;;5088628;28;20211;-69
2021/12/24 16:59:29;;;;;;;4.50;1.35;;;1.10;99.90;;;;;;5087746;28;20669;-69
2021/12/24 17:01:56;;;;;;;1.08;0.80;;;1.10;99.90;;;;;;5075945;28;20278;-69
2021/12/24 17:04:24;;;;;;;1.95;1.10;;;1.00;99.90;;;;;;5079502;28;20205;-69
2021/12/24 17:06:51;;;;;;;1.40;1.08;;;1.00;99.90;;;;;;5082402;28;20217;-69
2021/12/24 17:09:19;;;;;;;3.70;0.77;;;0.90;99.90;;;;;;5085338;28;20227;-68
2021/12/24 17:11:47;;;;;;;0.60;0.60;;;0.90;99.90;;;;;;5082338;28;20216;-67
2021/12/24 17:14:14;;;;;;;1.35;0.65;;;0.90;99.90;;;;;;5085929;28;20646;-68
2021/12/24 17:16:41;;;;;;;0.82;0.82;;;0.90;99.90;;;;;;5086033;28;20204;-68
2021/12/24 17:19:10;;;;;;;2.47;1.10;;;0.90;99.90;;;;;;5080051;28;20208;-69
2021/12/24 17:21:38;;;;;;;2.90;0.90;;;0.80;99.90;;;;;;5074848;28;20224;-69
2021/12/24 17:24:06;;;;;;;0.95;0.95;;;0.80;99.90;;;;;;5082593;28;20202;-68
2021/12/24 17:26:33;;;;;;;0.88;0.88;;;0.80;99.90;;;;;;5084350;28;20270;-68
2021/12/24 17:28:59;;;;;;;1.17;1.17;;;0.80;99.90;;;;;;5083082;28;20700;-69
2021/12/24 17:31:26;;;;;;;2.60;2.40;;;0.80;99.90;;;;;;5085955;28;20335;-67
2021/12/24 17:33:53;;;;;;;1.35;1.35;;;0.80;99.90;;;;;;5082308;28;20216;-68
2021/12/24 17:36:19;;;;;;;1.65;0.57;;;0.70;99.90;;;;;;5072647;28;20208;-69
2021/12/24 17:38:47;;;;;;;3.03;0.65;;;0.70;99.90;;;;;;5081694;28;20728;-68
2021/12/24 17:41:14;;;;;;;3.70;0.70;;;0.60;99.90;;;;;;5082761;28;21103;-67
2021/12/24 17:43:41;;;;;;;0.45;0.45;;;0.50;99.90;;;;;;5083197;28;20633;-68
2021/12/24 17:46:08;;;;;;;1.48;0.80;;;0.50;99.90;;;;;;5084269;28;20198;-68
2021/12/24 17:48:35;;;;;;;0.80;0.80;;;0.40;99.90;;;;;;5070687;28;20221;-68
2021/12/24 17:51:03;;;;;;;0.93;0.93;;;0.40;99.90;;;;;;5080953;28;20593;-68
2021/12/24 17:53:30;;;;;;;1.70;0.90;;;0.30;99.90;;;;;;5087647;28;20290;-69
2021/12/24 17:55:58;;;;;;;0.47;0.45;;;0.30;99.90;;;;;;5084235;28;20663;-69
2021/12/24 17:58:25;;;;;;;1.08;0.98;;;0.30;99.90;;;;;;5084812;28;20299;-70
2021/12/24 18:00:52;;;;;;;1.00;0.82;;;0.20;99.90;;;;;;5073127;28;20603;-70
2021/12/24 18:03:19;;;;;;;0.60;0.60;;;0.20;99.90;;;;;;5087866;28;20848;-70
2021/12/24 18:05:46;;;;;;;0.85;0.85;;;0.20;99.90;;;;;;5088378;28;20227;-70
2021/12/24 18:08:13;;;;;;;2.58;2.28;;;0.10;99.90;;;;;;5076709;28;20649;-69
2021/12/24 18:10:40;;;;;;;4.25;2.00;;;0.00;99.90;;;;;;5069480;28;20247;-69
2021/12/24 18:13:13;;;;;;;3.95;3.30;;;0.00;99.90;;;;;;5079698;28;20205;-69
2021/12/24 18:15:40;;;;;;;3.75;3.45;;;0.00;99.90;;;;;;5088492;28;20208;-69
2021/12/24 18:18:07;;;;;;;4.32;3.22;;;0.00;99.90;;;;;;5077356;28;20197;-69
2021/12/24 18:20:33;;;;;;;3.88;1.70;;;-0.10;99.90;;;;;;5068645;28;20611;-68
2021/12/24 18:23:00;;;;;;;1.63;0.60;;;-0.10;99.90;;;;;;5079534;28;20579;-69
2021/12/24 18:25:27;;;;;;;0.82;0.82;;;-0.10;99.90;;;;;;5070290;28;20192;-69